Time;durP1;ratioP1;P1;durP2;ratioP2;P2;SDS_P1;SDS_P2;PMS_P1;PMS_P2;Temp;Humidity;BMP_temperature;BMP_pressure;BME280_temperature;BME280_humidity;BME280_pressure;Samples;Min_cycle;Max_cycle;Signal;HPM_P1;HPM_P2
2023/10/13 00:00:40;;;;;;;2.92;2.72;;;22.40;33.30;;;;;;20632;6862;123195;-75
2023/10/13 00:03:03;;;;;;;6.17;3.50;;;22.10;33.50;;;;;;20619;6863;117940;-76
2023/10/13 00:05:30;;;;;;;6.12;3.85;;;22.10;33.40;;;;;;20404;6863;333588;-76
2023/10/13 00:07:55;;;;;;;3.80;2.97;;;22.10;33.40;;;;;;20632;6863;118265;-75
2023/10/13 00:10:21;;;;;;;4.97;3.20;;;22.00;33.10;;;;;;20635;6863;117558;-75
2023/10/13 00:12:49;;;;;;;4.53;3.62;;;21.90;33.50;;;;;;20420;6863;281572;-76
2023/10/13 00:15:14;;;;;;;6.33;4.00;;;22.10;33.70;;;;;;20401;6863;310481;-76
2023/10/13 00:17:41;;;;;;;6.00;3.90;;;22.40;33.40;;;;;;20418;6863;340553;-76
2023/10/13 00:20:12;;;;;;;5.68;3.67;;;22.50;33.30;;;;;;20625;6863;124166;-76
2023/10/13 00:22:33;;;;;;;6.05;3.85;;;22.50;33.30;;;;;;20395;6863;309294;-76
2023/10/13 00:25:03;;;;;;;3.93;3.27;;;22.50;33.20;;;;;;20619;6863;118425;-76
2023/10/13 00:27:41;;;;;;;5.37;3.70;;;22.40;33.30;;;;;;20394;6863;310764;-76
2023/10/13 00:30:17;;;;;;;4.47;3.60;;;22.50;33.40;;;;;;20619;6863;117428;-76
2023/10/13 00:32:31;;;;;;;4.07;3.58;;;22.30;33.50;;;;;;20324;6863;341970;-76
2023/10/13 00:34:56;;;;;;;5.53;3.83;;;22.40;33.50;;;;;;20620;6863;119105;-76
2023/10/13 00:37:28;;;;;;;6.07;3.70;;;22.30;33.50;;;;;;20399;6864;278766;-76
2023/10/13 00:39:48;;;;;;;4.87;3.53;;;22.30;33.50;;;;;;20607;6864;120098;-75
2023/10/13 00:42:25;;;;;;;5.53;3.53;;;22.20;33.60;;;;;;20627;6864;117947;-75
2023/10/13 00:44:49;;;;;;;7.07;4.10;;;22.00;33.90;;;;;;20403;6864;311123;-75
2023/10/13 00:47:22;;;;;;;5.60;3.87;;;22.30;33.90;;;;;;20373;6864;278666;-76
2023/10/13 00:49:41;;;;;;;5.93;3.60;;;22.30;33.90;;;;;;20398;6864;284909;-75
2023/10/13 00:52:06;;;;;;;5.07;3.93;;;22.40;33.60;;;;;;20639;6864;117499;-76
2023/10/13 00:54:35;;;;;;;7.17;3.90;;;22.30;33.80;;;;;;20425;6864;287825;-76
2023/10/13 00:57:11;;;;;;;7.53;3.80;;;22.30;33.70;;;;;;20399;6864;308823;-76
2023/10/13 00:59:27;;;;;;;4.33;3.90;;;22.40;33.60;;;;;;20340;6864;278943;-76
2023/10/13 01:01:55;;;;;;;4.60;4.15;;;22.50;33.50;;;;;;20399;6864;315356;-76
2023/10/13 01:04:28;;;;;;;5.90;3.90;;;22.70;33.70;;;;;;20401;6864;325698;-76
2023/10/13 01:06:51;;;;;;;3.93;3.50;;;22.40;33.70;;;;;;20598;6864;118753;-76
2023/10/13 01:09:17;;;;;;;4.47;3.40;;;22.40;33.70;;;;;;20588;6864;120645;-76
2023/10/13 01:11:48;;;;;;;5.57;3.58;;;22.00;34.10;;;;;;20600;6862;123808;-76
2023/10/13 01:14:14;;;;;;;4.97;3.20;;;21.70;34.40;;;;;;20601;6863;123864;-76
2023/10/13 01:16:40;;;;;;;4.10;3.67;;;21.40;34.60;;;;;;20594;6863;121842;-75
2023/10/13 01:19:05;;;;;;;4.33;3.60;;;21.20;34.90;;;;;;20368;6863;280370;-76
2023/10/13 01:21:29;;;;;;;3.90;3.43;;;21.40;35.10;;;;;;20574;6863;117347;-76
2023/10/13 01:23:54;;;;;;;4.93;3.70;;;21.30;35.00;;;;;;20595;6863;118921;-76
2023/10/13 01:26:27;;;;;;;3.85;3.55;;;21.10;35.10;;;;;;20614;6863;124176;-76
2023/10/13 01:28:54;;;;;;;4.67;4.00;;;20.90;35.40;;;;;;20390;6863;308625;-75
2023/10/13 01:31:26;;;;;;;4.12;3.58;;;21.00;35.90;;;;;;20351;6863;290087;-75
2023/10/13 01:33:54;;;;;;;5.50;3.83;;;21.30;35.80;;;;;;20607;6863;118045;-76
2023/10/13 01:36:19;;;;;;;4.60;4.20;;;21.20;35.80;;;;;;20391;6863;307394;-76
2023/10/13 01:38:46;;;;;;;4.97;4.15;;;21.40;35.80;;;;;;20402;6863;328135;-75
2023/10/13 01:41:12;;;;;;;4.17;3.73;;;21.30;35.70;;;;;;20382;6863;278756;-75
2023/10/13 01:43:36;;;;;;;4.70;3.70;;;21.50;35.60;;;;;;20391;6863;283286;-75
2023/10/13 01:46:03;;;;;;;4.40;3.43;;;21.60;35.60;;;;;;20626;6863;119836;-75
2023/10/13 01:48:32;;;;;;;6.50;3.87;;;21.30;36.00;;;;;;20400;6863;279582;-76
2023/10/13 01:50:55;;;;;;;4.13;3.40;;;21.30;36.00;;;;;;20609;6864;120436;-75
2023/10/13 01:53:20;;;;;;;4.17;3.77;;;21.10;35.90;;;;;;20373;6864;337349;-76
2023/10/13 01:55:45;;;;;;;4.40;3.42;;;21.10;36.70;;;;;;20622;6864;118195;-75
2023/10/13 01:58:18;;;;;;;4.00;3.60;;;20.90;36.70;;;;;;20599;6864;117963;-75
2023/10/13 02:00:43;;;;;;;5.27;3.20;;;20.60;36.70;;;;;;20619;6864;117340;-76
2023/10/13 02:03:16;;;;;;;4.73;3.83;;;20.40;36.90;;;;;;20366;6864;342585;-76
2023/10/13 02:05:43;;;;;;;4.27;3.80;;;20.50;37.60;;;;;;20401;6864;283794;-76
2023/10/13 02:08:07;;;;;;;4.17;3.73;;;20.70;37.50;;;;;;20594;6864;118024;-75
2023/10/13 02:10:31;;;;;;;4.97;3.80;;;20.70;37.40;;;;;;20391;6864;317644;-75
2023/10/13 02:12:58;;;;;;;3.87;3.53;;;20.60;37.60;;;;;;20607;6864;125240;-75
2023/10/13 02:15:26;;;;;;;3.87;3.47;;;20.60;37.60;;;;;;20561;6864;118352;-75
2023/10/13 02:17:52;;;;;;;3.97;3.30;;;20.30;37.90;;;;;;20587;6864;118199;-75
2023/10/13 02:20:18;;;;;;;4.47;3.47;;;20.10;38.10;;;;;;20606;6864;117406;-75
2023/10/13 02:22:49;;;;;;;4.30;3.90;;;19.80;38.30;;;;;;20402;6862;325218;-75
2023/10/13 02:25:35;;;;;;;4.70;4.03;;;20.00;39.00;;;;;;20575;6863;117458;-76
2023/10/13 02:27:48;;;;;;;3.97;3.67;;;19.90;38.60;;;;;;20560;6863;117365;-76
2023/10/13 02:30:13;;;;;;;4.87;3.77;;;19.70;38.70;;;;;;20374;6863;336228;-76
2023/10/13 02:32:40;;;;;;;4.73;4.00;;;19.80;39.20;;;;;;20393;6863;278697;-76
2023/10/13 02:35:06;;;;;;;5.97;3.87;;;20.10;38.70;;;;;;20397;6863;278720;-76
2023/10/13 02:37:27;;;;;;;5.10;4.20;;;20.30;38.70;;;;;;20348;6863;341220;-76
2023/10/13 02:39:52;;;;;;;3.60;3.30;;;20.40;38.40;;;;;;20605;6863;117110;-76
2023/10/13 02:42:23;;;;;;;4.47;4.00;;;20.20;38.30;;;;;;20403;6863;278919;-76
2023/10/13 02:44:49;;;;;;;6.63;3.93;;;20.10;38.80;;;;;;20405;6863;280568;-76
2023/10/13 02:47:14;;;;;;;5.63;3.73;;;20.30;38.60;;;;;;20385;6863;295985;-74
2023/10/13 02:49:43;;;;;;;4.10;3.43;;;20.40;38.80;;;;;;20598;6863;117551;-76
2023/10/13 02:52:08;;;;;;;4.93;3.77;;;20.10;39.10;;;;;;20376;6863;290919;-76
2023/10/13 02:54:39;;;;;;;6.47;3.53;;;20.10;39.10;;;;;;20611;6863;119946;-76
2023/10/13 02:57:03;;;;;;;4.85;3.75;;;19.90;39.00;;;;;;20597;6863;117832;-76
2023/10/13 02:59:34;;;;;;;4.97;3.55;;;19.50;39.20;;;;;;20564;6863;123262;-76
2023/10/13 03:01:52;;;;;;;5.15;3.83;;;19.30;39.60;;;;;;20381;6864;278681;-76
2023/10/13 03:04:23;;;;;;;4.70;3.80;;;19.40;40.30;;;;;;20410;6864;278614;-76
2023/10/13 03:06:41;;;;;;;4.95;4.28;;;19.60;40.20;;;;;;20382;6864;309166;-76
2023/10/13 03:09:21;;;;;;;4.43;4.03;;;19.90;40.00;;;;;;20590;6864;118244;-76
2023/10/13 03:11:49;;;;;;;5.45;4.30;;;19.70;40.00;;;;;;20372;6864;337799;-76
2023/10/13 03:14:31;;;;;;;6.93;4.17;;;19.70;39.90;;;;;;20399;6864;308995;-75
2023/10/13 03:17:05;;;;;;;5.82;4.32;;;19.90;39.70;;;;;;20380;6864;338204;-75
2023/10/13 03:19:32;;;;;;;5.47;3.97;;;20.10;40.10;;;;;;20367;6864;280025;-75
2023/10/13 03:22:05;;;;;;;6.47;3.93;;;20.10;39.20;;;;;;20588;6864;117048;-75
2023/10/13 03:24:33;;;;;;;4.10;3.70;;;19.90;39.30;;;;;;20590;6864;120757;-75
2023/10/13 03:26:52;;;;;;;5.50;4.30;;;19.50;39.50;;;;;;20373;6864;339111;-75
2023/10/13 03:29:21;;;;;;;5.77;3.97;;;19.50;39.40;;;;;;20585;6864;117511;-75
2023/10/13 03:31:45;;;;;;;4.80;4.30;;;19.40;39.30;;;;;;20368;6864;309228;-78
2023/10/13 03:34:11;;;;;;;4.50;4.10;;;19.50;39.20;;;;;;20603;6862;117513;-76
2023/10/13 03:39:18;;;;;;;5.25;3.95;;;19.50;38.90;;;;;;20377;6863;308286;-73
2023/10/13 03:41:45;;;;;;;7.20;4.30;;;19.80;38.60;;;;;;20407;6863;279504;-73
2023/10/13 03:44:17;;;;;;;6.00;3.97;;;20.10;38.50;;;;;;20623;6863;119329;-73
2023/10/13 03:46:40;;;;;;;4.83;4.07;;;19.90;38.70;;;;;;20382;6863;313789;-73
2023/10/13 03:49:02;;;;;;;7.13;4.53;;;19.90;38.70;;;;;;20596;6863;122415;-73
2023/10/13 03:51:31;;;;;;;5.13;4.13;;;19.90;38.60;;;;;;20377;6863;286320;-72
2023/10/13 03:53:58;;;;;;;5.03;3.92;;;19.90;38.60;;;;;;20405;6863;308253;-72
2023/10/13 03:56:38;;;;;;;5.87;4.18;;;20.10;38.60;;;;;;20345;6863;311086;-71
2023/10/13 03:58:54;;;;;;;6.13;3.77;;;20.20;38.20;;;;;;20386;6863;117678;-71
2023/10/13 04:01:24;;;;;;;4.77;3.93;;;20.00;38.20;;;;;;20439;6863;118921;-76
2023/10/13 04:04:10;;;;;;;5.83;4.03;;;19.70;38.70;;;;;;20271;6863;311098;-73
2023/10/13 04:15:23;;;;;;;4.83;4.37;;;19.30;39.20;;;;;;20415;6864;290338;-75
2023/10/13 04:16:58;;;;;;;6.12;4.30;;;19.40;40.30;;;;;;20048;6864;308580;-76
2023/10/13 04:19:28;;;;;;;4.90;4.13;;;19.50;39.00;;;;;;20596;6864;124877;-75
2023/10/13 04:21:58;;;;;;;6.87;4.25;;;19.50;39.00;;;;;;20403;6864;337895;-75
2023/10/13 04:24:37;;;;;;;4.97;3.67;;;19.60;39.10;;;;;;20614;6864;123256;-78
2023/10/13 04:32:32;;;;;;;8.03;4.10;;;19.00;39.70;;;;;;20622;6864;117809;-77
2023/10/13 04:34:58;;;;;;;5.20;3.97;;;19.00;39.70;;;;;;20604;6864;117851;-81
2023/10/13 04:37:33;;;;;;;4.80;4.18;;;18.70;40.00;;;;;;20559;6864;118415;-75
2023/10/13 04:40:10;;;;;;;4.13;3.80;;;18.60;40.40;;;;;;20604;6864;117434;-74
2023/10/13 04:42:57;;;;;;;6.03;4.00;;;18.40;40.70;;;;;;20619;6864;117448;-74
2023/10/13 04:45:49;;;;;;;5.13;4.07;;;18.30;41.00;;;;;;20393;6862;298618;-76
2023/10/13 04:47:57;;;;;;;5.67;3.93;;;18.50;41.70;;;;;;20479;6863;117464;-75
2023/10/13 04:50:34;;;;;;;5.60;4.33;;;18.60;41.40;;;;;;20387;6863;307372;-76
2023/10/13 04:53:01;;;;;;;4.77;3.90;;;18.80;41.20;;;;;;20560;6863;117318;-74
2023/10/13 04:55:17;;;;;;;6.17;4.40;;;18.70;40.80;;;;;;20348;6863;283646;-75
2023/10/13 04:57:49;;;;;;;4.32;3.92;;;18.90;41.00;;;;;;20606;6863;119600;-75
2023/10/13 05:51:57;;;;;;;5.87;4.57;;;18.50;41.30;;;;;;20412;6864;308201;-75
2023/10/13 06:29:46;;;;;;;6.00;4.17;;;18.70;41.50;;;;;;20611;6863;118060;-74
2023/10/13 06:32:11;;;;;;;5.03;4.30;;;18.60;41.70;;;;;;20613;6863;118126;-74
2023/10/13 06:34:47;;;;;;;4.90;4.35;;;18.60;41.90;;;;;;20396;6863;279503;-76
2023/10/13 06:37:32;;;;;;;4.77;4.30;;;19.00;42.30;;;;;;20381;6864;312570;-74
2023/10/13 06:40:06;;;;;;;4.67;4.07;;;19.60;41.10;;;;;;20610;6864;117899;-75
2023/10/13 06:42:29;;;;;;;5.23;3.70;;;19.60;41.10;;;;;;20592;6864;117562;-76
2023/10/13 06:44:55;;;;;;;6.00;4.03;;;19.50;41.10;;;;;;20620;6864;118246;-77
2023/10/13 06:47:21;;;;;;;5.63;3.80;;;19.50;41.10;;;;;;20585;6864;124938;-76
2023/10/13 06:49:48;;;;;;;6.03;4.62;;;19.50;41.10;;;;;;20391;6864;312779;-75
2023/10/13 06:52:12;;;;;;;6.33;4.17;;;19.90;41.20;;;;;;20622;6864;117977;-78
2023/10/13 06:54:39;;;;;;;4.63;4.23;;;20.10;40.80;;;;;;20394;6864;279059;-76
2023/10/13 06:57:06;;;;;;;6.80;4.50;;;20.40;39.70;;;;;;20397;6864;309388;-77
2023/10/13 06:59:32;;;;;;;7.03;4.50;;;20.70;39.70;;;;;;20576;6864;119158;-78
2023/10/13 07:02:02;;;;;;;7.43;4.20;;;20.80;39.60;;;;;;20398;6864;310968;-75
2023/10/13 07:04:21;;;;;;;4.53;3.93;;;21.00;40.50;;;;;;20394;6864;307861;-74
2023/10/13 07:06:50;;;;;;;5.03;3.93;;;21.40;40.20;;;;;;20627;6864;123167;-74
2023/10/13 07:09:39;;;;;;;6.00;4.30;;;21.50;39.90;;;;;;20579;6862;123247;-75
2023/10/13 07:11:42;;;;;;;4.63;3.73;;;21.50;39.80;;;;;;20555;6863;117511;-74
2023/10/13 07:14:10;;;;;;;5.07;4.57;;;21.50;39.80;;;;;;20407;6863;309712;-74
2023/10/13 07:16:35;;;;;;;6.20;4.60;;;21.70;38.80;;;;;;20389;6863;308307;-74
2023/10/13 07:19:05;;;;;;;8.30;4.78;;;22.20;38.20;;;;;;20601;6863;117245;-74
2023/10/13 07:21:32;;;;;;;4.43;4.03;;;22.40;38.20;;;;;;20584;6863;125185;-75
2023/10/13 07:24:08;;;;;;;4.67;4.27;;;22.30;38.50;;;;;;20622;6863;117697;-74
2023/10/13 07:26:28;;;;;;;7.00;4.00;;;22.30;38.30;;;;;;20599;6863;117176;-74
2023/10/13 07:28:53;;;;;;;5.90;4.05;;;22.20;38.20;;;;;;20590;6863;118324;-74
2023/10/13 07:31:20;;;;;;;4.93;4.53;;;22.20;38.20;;;;;;20597;6863;121394;-74
2023/10/13 07:33:45;;;;;;;4.70;4.27;;;22.50;37.50;;;;;;20389;6863;318926;-74
2023/10/13 07:38:59;;;;;;;7.10;4.87;;;23.00;36.70;;;;;;20387;6863;343412;-74
2023/10/13 07:41:15;;;;;;;7.10;4.50;;;23.80;35.60;;;;;;20360;6863;279099;-74
2023/10/13 07:43:41;;;;;;;6.67;4.50;;;23.80;35.60;;;;;;20401;6863;308821;-75
2023/10/13 07:46:09;;;;;;;4.87;4.00;;;24.10;35.10;;;;;;20619;6863;118786;-76
2023/10/13 07:48:33;;;;;;;7.40;4.37;;;24.10;35.30;;;;;;20599;6864;120373;-76
2023/10/13 07:50:58;;;;;;;4.90;4.37;;;24.00;35.60;;;;;;20398;6864;281260;-75
2023/10/13 07:53:23;;;;;;;9.27;4.27;;;24.10;34.90;;;;;;20566;6864;121725;-75
2023/10/13 07:55:55;;;;;;;7.18;4.47;;;24.20;35.20;;;;;;20396;6864;279168;-74
2023/10/13 07:58:14;;;;;;;7.00;4.62;;;24.30;34.70;;;;;;20372;6864;316914;-76
2023/10/13 08:00:54;;;;;;;4.20;3.80;;;24.60;34.60;;;;;;20612;6864;117661;-76
2023/10/13 08:05:58;;;;;;;4.53;3.80;;;24.70;34.10;;;;;;20608;6864;118026;-73
2023/10/13 08:08:21;;;;;;;6.07;4.23;;;24.70;34.40;;;;;;20547;6864;119774;-74
2023/10/13 08:10:47;;;;;;;5.60;4.30;;;24.50;34.70;;;;;;20407;6864;310550;-73
2023/10/13 08:13:12;;;;;;;5.72;4.37;;;24.60;34.20;;;;;;20380;6864;309642;-74
2023/10/13 08:15:47;;;;;;;4.97;4.30;;;24.90;34.00;;;;;;20395;6864;308260;-73
2023/10/13 08:18:16;;;;;;;7.17;4.10;;;25.20;33.80;;;;;;20582;6864;123467;-76
2023/10/13 08:20:38;;;;;;;4.63;4.23;;;25.10;34.00;;;;;;20593;6862;117421;-74
2023/10/13 08:23:13;;;;;;;5.53;4.47;;;24.90;34.30;;;;;;20388;6863;307880;-74
2023/10/13 08:26:29;;;;;;;7.73;4.40;;;25.00;34.10;;;;;;20378;6863;307234;-74
2023/10/13 08:31:21;;;;;;;7.00;4.30;;;25.10;33.90;;;;;;20646;6863;116931;-72
2023/10/13 08:33:32;;;;;;;7.60;4.83;;;25.10;34.40;;;;;;20583;6863;123176;-73
2023/10/13 08:36:05;;;;;;;6.87;4.45;;;25.00;34.80;;;;;;20433;6863;283174;-73
2023/10/13 08:38:28;;;;;;;9.07;4.57;;;25.10;34.30;;;;;;20586;6863;117600;-72
2023/10/13 08:43:45;;;;;;;5.87;4.13;;;25.20;34.50;;;;;;20622;6863;117464;-73
2023/10/13 08:45:58;;;;;;;6.57;4.37;;;25.10;34.70;;;;;;20574;6863;117495;-73
2023/10/13 08:48:31;;;;;;;7.23;4.60;;;25.10;34.70;;;;;;20595;6863;117439;-74
2023/10/13 08:50:52;;;;;;;7.10;4.13;;;25.10;34.80;;;;;;20586;6863;117277;-73
2023/10/13 08:53:31;;;;;;;5.20;4.33;;;25.10;34.70;;;;;;20377;6863;281115;-73
2023/10/13 09:02:15;;;;;;;7.53;4.60;;;26.20;32.60;;;;;;20380;6864;304972;-72
2023/10/13 09:03:42;;;;;;;4.60;4.30;;;26.60;31.80;;;;;;20040;6864;308604;-73
2023/10/13 09:06:14;;;;;;;8.90;4.17;;;26.80;31.90;;;;;;20603;6864;118475;-73
2023/10/13 09:11:26;;;;;;;6.77;3.70;;;26.60;32.20;;;;;;20588;6864;118033;-74
2023/10/13 09:13:48;;;;;;;5.17;4.07;;;26.40;32.40;;;;;;20379;6864;279157;-75
2023/10/13 09:16:22;;;;;;;8.00;4.23;;;26.50;31.70;;;;;;20604;6864;117284;-73
2023/10/13 09:18:52;;;;;;;6.22;4.30;;;26.50;31.90;;;;;;20367;6864;311275;-73
2023/10/13 09:24:15;;;;;;;8.30;4.47;;;27.00;31.50;;;;;;20390;6864;310115;-74
2023/10/13 09:26:21;;;;;;;7.43;4.13;;;27.40;31.30;;;;;;20536;6864;117712;-73
2023/10/13 09:28:51;;;;;;;19.00;5.00;;;27.30;31.20;;;;;;20374;6864;279616;-74
2023/10/13 09:31:10;;;;;;;10.60;4.62;;;27.40;30.70;;;;;;20348;6864;309125;-74
2023/10/13 09:33:36;;;;;;;5.95;4.15;;;27.60;30.50;;;;;;20613;6862;117556;-73
2023/10/13 09:36:04;;;;;;;7.60;4.30;;;27.60;30.70;;;;;;20394;6863;308619;-74
2023/10/13 09:38:27;;;;;;;7.43;4.23;;;27.70;30.90;;;;;;20595;6863;117290;-74
2023/10/13 09:40:57;;;;;;;5.80;4.03;;;27.70;31.00;;;;;;20618;6863;117372;-73
2023/10/13 09:43:19;;;;;;;8.60;4.00;;;27.50;31.10;;;;;;20357;6863;311494;-75
2023/10/13 09:46:15;;;;;;;7.72;4.03;;;27.70;30.90;;;;;;20610;6863;120009;-74
2023/10/13 09:48:33;;;;;;;10.45;4.62;;;27.80;31.00;;;;;;20352;6863;339452;-79
2023/10/13 09:51:02;;;;;;;10.63;4.37;;;28.00;30.00;;;;;;20390;6863;278286;-76
2023/10/13 09:53:29;;;;;;;6.77;4.03;;;28.20;30.20;;;;;;20568;6863;117717;-77
2023/10/13 09:56:00;;;;;;;7.40;4.43;;;28.20;30.00;;;;;;20388;6863;283616;-76
2023/10/13 09:58:28;;;;;;;10.60;4.62;;;28.30;29.80;;;;;;20371;6863;310505;-75
2023/10/13 10:01:20;;;;;;;9.05;4.45;;;28.50;29.80;;;;;;20374;6863;280319;-76
2023/10/13 10:06:14;;;;;;;9.43;4.45;;;28.80;29.70;;;;;;20408;6863;309831;-73
2023/10/13 10:08:48;;;;;;;7.62;3.95;;;29.00;29.10;;;;;;20353;6863;319313;-72
2023/10/13 10:11:25;;;;;;;5.73;3.63;;;29.20;29.20;;;;;;20582;6864;120013;-74
2023/10/13 10:14:04;;;;;;;8.80;3.87;;;29.20;29.20;;;;;;20403;6864;284739;-72
2023/10/13 10:16:29;;;;;;;6.97;3.67;;;29.30;28.40;;;;;;20596;6864;121914;-73
2023/10/13 10:19:02;;;;;;;6.60;3.50;;;29.20;28.50;;;;;;20403;6864;278661;-74
2023/10/13 10:21:35;;;;;;;3.63;3.33;;;29.30;28.10;;;;;;20625;6864;118394;-74
2023/10/13 10:24:13;;;;;;;6.57;3.90;;;29.40;27.90;;;;;;20361;6864;318715;-74
2023/10/13 10:26:29;;;;;;;10.90;3.70;;;29.40;27.80;;;;;;20348;6864;278299;-74
2023/10/13 10:28:54;;;;;;;5.73;3.43;;;29.70;27.20;;;;;;20586;6864;118074;-73
2023/10/13 10:31:19;;;;;;;7.60;3.42;;;29.90;26.20;;;;;;20364;6864;317651;-75
2023/10/13 10:33:46;;;;;;;5.93;2.97;;;29.90;26.20;;;;;;20597;6864;123624;-75
2023/10/13 10:36:14;;;;;;;7.70;3.65;;;29.90;26.40;;;;;;20399;6864;280167;-74
2023/10/13 10:38:38;;;;;;;7.80;3.17;;;30.10;25.90;;;;;;20590;6864;119967;-72
2023/10/13 10:41:04;;;;;;;9.90;3.58;;;30.10;25.80;;;;;;20323;6864;284666;-73
2023/10/13 10:43:41;;;;;;;4.80;3.30;;;30.30;26.00;;;;;;20592;6862;120482;-75
2023/10/13 10:46:02;;;;;;;4.17;3.00;;;30.20;25.70;;;;;;20546;6863;119874;-74
2023/10/13 10:48:35;;;;;;;6.47;3.57;;;30.20;25.70;;;;;;20364;6863;313470;-76
2023/10/13 10:51:07;;;;;;;6.93;3.70;;;30.50;25.30;;;;;;20390;6863;285454;-73
2023/10/13 10:54:32;;;;;;;4.97;3.37;;;30.50;25.30;;;;;;20343;6863;474842;-72
2023/10/13 10:56:04;;;;;;;6.80;3.40;;;30.70;24.80;;;;;;19989;6863;286954;-72
2023/10/13 10:58:29;;;;;;;4.60;3.10;;;30.80;24.60;;;;;;20546;6863;117359;-73
2023/10/13 11:01:10;;;;;;;4.93;2.83;;;30.80;24.70;;;;;;20578;6863;121016;-73
2023/10/13 11:03:30;;;;;;;5.60;2.83;;;30.50;24.60;;;;;;20536;6863;119397;-72
2023/10/13 11:05:56;;;;;;;5.53;3.00;;;30.30;24.90;;;;;;20587;6863;121350;-72
2023/10/13 11:08:31;;;;;;;4.93;3.33;;;30.10;25.10;;;;;;20580;6863;117339;-72
2023/10/13 11:10:47;;;;;;;5.57;2.90;;;30.00;25.00;;;;;;20571;6863;117310;-74
2023/10/13 11:13:21;;;;;;;5.27;2.77;;;30.00;25.40;;;;;;20583;6863;118583;-73
2023/10/13 11:15:44;;;;;;;7.23;3.17;;;30.00;25.00;;;;;;20356;6863;309059;-73
2023/10/13 11:18:13;;;;;;;5.85;3.42;;;30.20;24.00;;;;;;20362;6863;339540;-72
2023/10/13 11:20:43;;;;;;;4.00;2.70;;;30.60;24.00;;;;;;20571;6863;117389;-72
2023/10/13 11:23:04;;;;;;;5.87;3.40;;;30.70;24.30;;;;;;20576;6864;119544;-72
2023/10/13 11:25:30;;;;;;;5.67;3.20;;;30.70;24.50;;;;;;20560;6864;121913;-73
2023/10/13 11:27:55;;;;;;;4.53;2.93;;;30.70;24.60;;;;;;20606;6864;119681;-72
2023/10/13 11:30:25;;;;;;;7.25;3.30;;;30.60;24.60;;;;;;20389;6864;328112;-71
2023/10/13 11:33:00;;;;;;;6.37;2.97;;;30.90;24.40;;;;;;20591;6864;117375;-75
2023/10/13 11:35:30;;;;;;;3.03;2.83;;;30.90;23.80;;;;;;20604;6864;181474;-74
2023/10/13 11:38:14;;;;;;;8.10;3.50;;;30.90;23.90;;;;;;20610;6864;119816;-73
2023/10/13 11:40:43;;;;;;;5.27;3.40;;;30.70;23.70;;;;;;20270;6864;308603;-74
2023/10/13 11:42:47;;;;;;;8.90;2.87;;;30.90;23.20;;;;;;20561;6864;120005;-71
2023/10/13 11:45:31;;;;;;;4.97;2.90;;;30.90;23.30;;;;;;20393;6864;281691;-71
2023/10/13 11:48:00;;;;;;;4.50;3.13;;;31.00;23.20;;;;;;20394;6864;279282;-74
2023/10/13 11:50:33;;;;;;;3.47;2.70;;;31.40;23.30;;;;;;20599;6864;119544;-72
2023/10/13 11:52:57;;;;;;;8.40;3.10;;;31.40;23.20;;;;;;20596;6864;121367;-71
2023/10/13 11:55:24;;;;;;;5.07;2.93;;;31.00;23.90;;;;;;20248;6863;122602;-71
2023/10/13 11:57:49;;;;;;;4.77;3.00;;;31.00;23.90;;;;;;20610;6863;117622;-72
2023/10/13 12:00:50;;;;;;;4.83;3.20;;;30.70;24.00;;;;;;20635;6863;117427;-72
2023/10/13 12:05:49;;;;;;;6.40;3.23;;;30.60;23.40;;;;;;20430;6863;281362;-72
2023/10/13 12:08:07;;;;;;;5.93;3.10;;;30.90;23.30;;;;;;20389;6863;342099;-73
2023/10/13 12:10:49;;;;;;;4.67;3.37;;;31.10;23.30;;;;;;20412;6863;281460;-73
2023/10/13 12:13:05;;;;;;;7.13;2.90;;;31.40;23.50;;;;;;20591;6863;117690;-72
2023/10/13 12:15:33;;;;;;;5.07;3.00;;;31.30;23.40;;;;;;20594;6863;119882;-72
2023/10/13 12:17:51;;;;;;;5.15;3.30;;;31.00;23.60;;;;;;20399;6863;282518;-72
2023/10/13 12:20:32;;;;;;;6.57;3.30;;;30.90;24.20;;;;;;20641;6863;117375;-72
2023/10/13 12:22:51;;;;;;;9.67;3.20;;;30.80;23.40;;;;;;20599;6863;118240;-73
2023/10/13 12:25:25;;;;;;;4.30;3.20;;;30.60;23.70;;;;;;20599;6863;117278;-74
2023/10/13 12:27:50;;;;;;;8.17;4.07;;;30.50;23.90;;;;;;20413;6863;281071;-74
2023/10/13 12:30:14;;;;;;;5.93;3.45;;;30.50;24.00;;;;;;20423;6863;309619;-75
2023/10/13 12:32:44;;;;;;;4.30;2.83;;;30.80;23.70;;;;;;20638;6863;118535;-76
2023/10/13 12:51:40;;;;;;;7.27;3.40;;;30.00;24.30;;;;;;20620;6864;117940;-75
2023/10/13 12:53:50;;;;;;;4.73;3.20;;;29.90;24.50;;;;;;20583;6864;117633;-74
2023/10/13 12:56:15;;;;;;;6.37;3.57;;;29.80;24.60;;;;;;20626;6864;120573;-75
2023/10/13 12:58:41;;;;;;;4.27;3.10;;;29.70;24.70;;;;;;20635;6864;121256;-74
2023/10/13 13:01:07;;;;;;;5.22;3.60;;;29.70;24.80;;;;;;20417;6864;333210;-76
2023/10/13 13:03:32;;;;;;;7.07;3.33;;;29.90;24.50;;;;;;20577;6879;117719;-74
2023/10/13 13:05:58;;;;;;;4.33;3.40;;;30.00;24.50;;;;;;20391;6874;280522;-74
2023/10/13 13:08:23;;;;;;;6.37;3.65;;;30.20;24.60;;;;;;20431;6862;278987;-74
2023/10/13 13:10:49;;;;;;;4.95;3.47;;;30.50;24.00;;;;;;20428;6863;280853;-75
2023/10/13 13:13:16;;;;;;;5.70;3.47;;;30.70;24.00;;;;;;20617;6863;117826;-75
2023/10/13 13:15:40;;;;;;;5.87;3.20;;;30.70;24.10;;;;;;20414;6863;316294;-75
2023/10/13 13:18:12;;;;;;;6.17;3.63;;;30.80;23.80;;;;;;20425;6863;310276;-74
2023/10/13 13:20:52;;;;;;;3.37;3.00;;;30.80;24.50;;;;;;20638;6863;117442;-74
2023/10/13 13:23:07;;;;;;;6.40;3.10;;;30.80;23.90;;;;;;20600;6863;124101;-76
2023/10/13 13:25:33;;;;;;;6.62;3.58;;;30.60;23.70;;;;;;20376;6884;339144;-75
2023/10/13 13:28:04;;;;;;;5.53;3.37;;;30.50;23.60;;;;;;20646;6863;118151;-74
2023/10/13 13:30:30;;;;;;;3.57;3.27;;;30.50;23.80;;;;;;20626;6863;117349;-75
2023/10/13 13:32:50;;;;;;;3.77;3.20;;;30.40;23.60;;;;;;20385;6863;309928;-75
2023/10/13 13:35:18;;;;;;;4.90;3.33;;;30.40;22.90;;;;;;20618;6863;119859;-75
2023/10/13 13:37:44;;;;;;;7.30;3.40;;;30.40;23.20;;;;;;20426;6863;278662;-75
2023/10/13 13:40:15;;;;;;;4.87;3.20;;;30.50;23.00;;;;;;20701;6863;66146;-77
2023/10/13 13:42:40;;;;;;;7.05;3.35;;;30.50;23.00;;;;;;20419;6863;313361;-75
2023/10/13 13:45:08;;;;;;;4.80;3.23;;;30.50;22.30;;;;;;20614;6864;118971;-78
2023/10/13 13:47:33;;;;;;;6.00;3.33;;;30.50;22.70;;;;;;20401;6864;300167;-75
2023/10/13 13:49:57;;;;;;;4.83;3.10;;;30.50;22.50;;;;;;20651;6864;117469;-75
2023/10/13 13:52:33;;;;;;;3.53;3.07;;;30.40;22.70;;;;;;20446;6864;288398;-75
2023/10/13 13:54:48;;;;;;;5.30;3.00;;;30.50;22.70;;;;;;20408;6864;310649;-75
2023/10/13 13:57:13;;;;;;;5.50;3.40;;;30.60;22.60;;;;;;20412;6864;313447;-74
2023/10/13 13:59:39;;;;;;;4.45;2.87;;;30.80;22.60;;;;;;20620;6864;122419;-75
2023/10/13 14:02:18;;;;;;;8.00;3.30;;;30.70;22.80;;;;;;20432;6864;307434;-74
2023/10/13 14:04:31;;;;;;;6.43;3.10;;;30.70;23.00;;;;;;20596;6864;120261;-72
2023/10/13 14:06:56;;;;;;;6.10;3.30;;;30.60;23.00;;;;;;20410;6864;279664;-72
2023/10/13 14:14:55;;;;;;;5.47;2.80;;;30.20;22.90;;;;;;20609;6864;117454;-72
2023/10/13 14:17:14;;;;;;;4.93;3.00;;;29.90;23.00;;;;;;20372;6864;280071;-72
2023/10/13 14:19:40;;;;;;;6.97;3.42;;;29.90;22.60;;;;;;20406;6862;308666;-72
2023/10/13 14:22:11;;;;;;;5.23;2.60;;;30.10;22.40;;;;;;20616;6863;117250;-71
2023/10/13 14:24:35;;;;;;;6.77;3.10;;;30.20;23.20;;;;;;20430;6863;279995;-71
2023/10/13 14:27:08;;;;;;;6.03;3.50;;;30.10;22.60;;;;;;20423;6863;308728;-71
2023/10/13 14:29:26;;;;;;;3.80;2.83;;;30.20;22.90;;;;;;20597;6863;120395;-71
2023/10/13 14:31:52;;;;;;;2.80;2.60;;;30.20;22.50;;;;;;20636;6863;117506;-70
2023/10/13 14:34:21;;;;;;;5.47;3.10;;;29.90;22.20;;;;;;20419;6863;313530;-71
2023/10/13 14:36:48;;;;;;;5.33;2.67;;;29.90;22.20;;;;;;20635;6863;123624;-73
2023/10/13 14:39:10;;;;;;;4.12;2.87;;;29.80;22.40;;;;;;20406;6863;288434;-73
2023/10/13 14:41:35;;;;;;;5.60;3.07;;;29.80;22.00;;;;;;20648;6863;119133;-73
2023/10/13 14:44:05;;;;;;;4.50;2.97;;;29.80;22.10;;;;;;20431;6863;279868;-72
2023/10/13 14:46:26;;;;;;;3.63;3.03;;;29.80;21.50;;;;;;20618;6863;117502;-72
2023/10/13 14:48:52;;;;;;;4.87;2.63;;;29.60;21.30;;;;;;20430;6863;279313;-71
2023/10/13 14:51:18;;;;;;;5.00;2.67;;;29.60;21.30;;;;;;20391;6863;308085;-74
2023/10/13 14:53:44;;;;;;;6.53;2.83;;;29.80;21.30;;;;;;20426;6863;300945;-74
2023/10/13 14:56:12;;;;;;;5.20;3.10;;;29.90;21.00;;;;;;20411;6864;311924;-72
2023/10/13 14:58:42;;;;;;;5.90;2.58;;;30.00;20.80;;;;;;20386;6864;309237;-72
2023/10/13 15:01:08;;;;;;;5.10;2.53;;;30.00;20.80;;;;;;20619;6864;118543;-72
2023/10/13 15:03:37;;;;;;;4.60;2.70;;;29.80;21.00;;;;;;20401;6864;338802;-73
2023/10/13 15:05:58;;;;;;;4.77;2.33;;;29.70;20.50;;;;;;20619;6864;117413;-72
2023/10/13 15:08:23;;;;;;;2.93;2.03;;;29.50;20.80;;;;;;20634;6864;119475;-71